Time;durP1;ratioP1;P1;durP2;ratioP2;P2;SDS_P1;SDS_P2;PMS_P1;PMS_P2;Temp;Humidity;BMP_temperature;BMP_pressure;BME280_temperature;BME280_humidity;BME280_pressure;Samples;Min_cycle;Max_cycle;Signal;HPM_P1;HPM_P2
2021/05/17 00:02:22;;;;;;;1.20;0.90;;;12.00;98.00;;;;;;5090245;28;20458;-72
2021/05/17 00:04:50;;;;;;;1.37;1.20;;;12.00;98.00;;;;;;5091808;28;20454;-72
2021/05/17 00:07:17;;;;;;;1.20;0.90;;;11.90;98.00;;;;;;5088872;28;20453;-72
2021/05/17 00:09:44;;;;;;;1.20;0.90;;;11.90;98.00;;;;;;5092195;28;20451;-72
2021/05/17 00:12:13;;;;;;;1.20;1.00;;;11.90;98.00;;;;;;5088621;28;20802;-72
2021/05/17 00:14:43;;;;;;;1.20;0.97;;;12.00;98.00;;;;;;5091901;28;20447;-72
2021/05/17 00:17:09;;;;;;;1.20;1.13;;;12.00;98.00;;;;;;5088895;28;20506;-72
2021/05/17 00:19:36;;;;;;;1.20;1.00;;;12.10;98.00;;;;;;5091624;28;20511;-72
2021/05/17 00:22:04;;;;;;;1.30;1.10;;;12.00;98.00;;;;;;5088418;28;20455;-72
2021/05/17 00:24:32;;;;;;;1.20;1.00;;;11.90;98.00;;;;;;5090530;28;20452;-72
2021/05/17 00:26:59;;;;;;;1.20;0.90;;;11.90;98.00;;;;;;5088855;28;20489;-72
2021/05/17 00:29:28;;;;;;;1.50;1.30;;;12.00;98.00;;;;;;5091644;28;20454;-72
2021/05/17 00:31:55;;;;;;;1.20;1.00;;;11.80;98.00;;;;;;5089124;28;20482;-72
2021/05/17 00:34:22;;;;;;;1.20;0.90;;;11.80;98.00;;;;;;5091439;28;20461;-72
2021/05/17 00:36:50;;;;;;;1.20;0.90;;;11.80;98.00;;;;;;5087346;28;20480;-72
2021/05/17 00:39:18;;;;;;;1.20;0.90;;;11.70;98.00;;;;;;5091327;28;20458;-72
2021/05/17 00:41:45;;;;;;;1.20;0.90;;;11.70;98.00;;;;;;5089142;28;20515;-72
2021/05/17 00:44:13;;;;;;;1.20;0.90;;;11.70;98.00;;;;;;5091285;28;20523;-72
2021/05/17 00:46:41;;;;;;;1.33;0.97;;;11.60;98.00;;;;;;5088357;28;20953;-72
2021/05/17 00:49:10;;;;;;;1.20;1.00;;;11.70;98.00;;;;;;5091303;28;20459;-71
2021/05/17 00:51:38;;;;;;;1.20;1.00;;;11.60;98.00;;;;;;5086986;28;20543;-71
2021/05/17 00:54:05;;;;;;;1.20;1.00;;;11.60;98.00;;;;;;5091218;28;20517;-72
2021/05/17 00:56:33;;;;;;;1.20;1.00;;;11.50;98.00;;;;;;5087982;28;20485;-72
2021/05/17 00:59:00;;;;;;;1.20;1.00;;;11.60;98.00;;;;;;5091349;28;20800;-72
2021/05/17 01:01:27;;;;;;;1.20;1.00;;;11.60;98.00;;;;;;5088340;28;21131;-72
2021/05/17 01:03:55;;;;;;;1.20;0.90;;;11.60;98.00;;;;;;5091578;28;20936;-72
2021/05/17 01:06:22;;;;;;;1.20;0.90;;;11.60;98.00;;;;;;5088327;28;20567;-72
2021/05/17 01:08:58;;;;;;;1.20;0.90;;;11.50;98.00;;;;;;5091387;28;20466;-72
2021/05/17 01:11:26;;;;;;;1.20;1.00;;;11.60;98.00;;;;;;5087812;28;20459;-72
2021/05/17 01:13:55;;;;;;;1.20;0.90;;;11.60;98.00;;;;;;5091172;28;20565;-71
2021/05/17 01:16:23;;;;;;;1.20;1.00;;;11.60;98.00;;;;;;5086619;28;20481;-72
2021/05/17 01:18:51;;;;;;;1.20;0.90;;;11.60;98.00;;;;;;5089961;28;20448;-71
2021/05/17 01:21:20;;;;;;;1.20;1.00;;;11.60;98.00;;;;;;5088201;28;20487;-72
2021/05/17 01:23:58;;;;;;;1.20;0.97;;;11.50;98.00;;;;;;5093611;28;20488;-72
2021/05/17 01:26:27;;;;;;;1.30;1.20;;;11.60;98.00;;;;;;5091845;28;20467;-72
2021/05/17 01:28:56;;;;;;;1.20;0.90;;;11.60;98.00;;;;;;5094590;28;20478;-72
2021/05/17 01:31:24;;;;;;;1.20;0.90;;;11.50;98.00;;;;;;5091337;28;20513;-72
2021/05/17 01:33:51;;;;;;;1.20;1.00;;;11.50;98.00;;;;;;5094492;28;20451;-72
2021/05/17 01:36:18;;;;;;;1.20;1.00;;;11.60;98.00;;;;;;5091124;28;20992;-72
2021/05/17 01:38:48;;;;;;;1.20;0.97;;;11.60;98.00;;;;;;5094482;28;20456;-72
2021/05/17 01:41:16;;;;;;;1.20;0.90;;;11.60;98.00;;;;;;5091493;28;20462;-72
2021/05/17 01:43:45;;;;;;;1.20;0.90;;;11.60;98.00;;;;;;5094292;28;20460;-72
2021/05/17 01:46:15;;;;;;;1.20;1.00;;;11.60;98.00;;;;;;5091056;28;20456;-72
2021/05/17 01:48:42;;;;;;;1.20;0.90;;;11.60;98.00;;;;;;5093399;28;20462;-72
2021/05/17 01:51:11;;;;;;;1.20;1.00;;;11.50;98.00;;;;;;5093694;28;20474;-72
2021/05/17 01:53:39;;;;;;;1.20;1.00;;;11.60;98.00;;;;;;5093529;28;20491;-72
2021/05/17 01:56:08;;;;;;;1.20;0.90;;;11.50;98.00;;;;;;5093455;28;20836;-72
2021/05/17 01:58:36;;;;;;;1.20;1.00;;;11.50;98.00;;;;;;5090818;28;20513;-72
2021/05/17 02:01:05;;;;;;;1.20;0.93;;;11.50;98.00;;;;;;5093494;28;20456;-71
2021/05/17 02:03:36;;;;;;;1.20;0.90;;;11.50;98.00;;;;;;5090785;28;20488;-72
2021/05/17 02:06:03;;;;;;;1.20;0.90;;;11.40;98.00;;;;;;5092762;28;20503;-72
2021/05/17 02:08:31;;;;;;;1.20;0.97;;;11.40;98.00;;;;;;5090382;28;20456;-72
2021/05/17 02:10:58;;;;;;;1.20;0.90;;;11.40;98.00;;;;;;5093754;28;20545;-72
2021/05/17 02:13:27;;;;;;;1.20;0.90;;;11.40;98.00;;;;;;5089746;28;21006;-72
2021/05/17 02:15:54;;;;;;;1.20;1.00;;;11.40;98.00;;;;;;5093417;28;20541;-72
2021/05/17 02:18:21;;;;;;;1.20;1.00;;;11.40;98.00;;;;;;5090080;28;20798;-72
2021/05/17 02:20:48;;;;;;;1.20;1.00;;;11.50;98.00;;;;;;5091750;28;20462;-72
2021/05/17 02:23:21;;;;;;;1.20;1.00;;;11.50;98.00;;;;;;5090069;28;20448;-72
2021/05/17 02:25:50;;;;;;;1.20;0.90;;;11.40;98.00;;;;;;5093920;28;20474;-72
2021/05/17 02:28:17;;;;;;;1.30;1.03;;;11.50;98.00;;;;;;5090433;28;20460;-72
2021/05/17 02:30:46;;;;;;;1.20;0.90;;;11.40;98.00;;;;;;5093633;28;20460;-72
2021/05/17 02:33:13;;;;;;;1.20;0.90;;;11.40;98.00;;;;;;5090049;28;20669;-72
2021/05/17 02:35:41;;;;;;;1.20;0.90;;;11.40;98.00;;;;;;5092814;28;20469;-72
2021/05/17 02:38:09;;;;;;;1.20;0.90;;;11.40;98.00;;;;;;5089292;28;21175;-72
2021/05/17 02:40:36;;;;;;;1.20;0.97;;;11.40;98.00;;;;;;5093255;28;20463;-71
2021/05/17 02:43:04;;;;;;;1.20;0.90;;;11.30;98.00;;;;;;5089032;28;20456;-72
2021/05/17 02:45:31;;;;;;;1.20;1.00;;;11.30;98.00;;;;;;5092788;28;20466;-71
2021/05/17 02:48:00;;;;;;;1.20;0.90;;;11.30;98.00;;;;;;5089522;28;20456;-71
2021/05/17 02:50:32;;;;;;;1.20;0.90;;;11.30;98.00;;;;;;5092936;28;20451;-72
2021/05/17 02:52:59;;;;;;;1.30;1.10;;;11.40;98.00;;;;;;5090128;28;20452;-71
2021/05/17 02:55:31;;;;;;;1.20;1.00;;;11.30;98.00;;;;;;5092750;28;20525;-72
2021/05/17 02:58:07;;;;;;;1.20;0.90;;;11.30;98.00;;;;;;5089719;28;20488;-72
2021/05/17 03:00:35;;;;;;;1.20;1.00;;;11.30;98.00;;;;;;5092752;28;20588;-71
2021/05/17 03:03:08;;;;;;;1.20;1.07;;;11.30;98.00;;;;;;5090186;28;20456;-72
2021/05/17 03:05:37;;;;;;;1.20;0.90;;;11.30;98.00;;;;;;5093038;28;20449;-71
2021/05/17 03:08:07;;;;;;;1.20;1.00;;;11.30;98.00;;;;;;5090224;28;20495;-72
2021/05/17 03:10:35;;;;;;;1.20;0.90;;;11.30;98.00;;;;;;5092982;28;20459;-72
2021/05/17 03:13:07;;;;;;;1.20;0.90;;;11.30;98.00;;;;;;5089596;28;20479;-71
2021/05/17 03:15:34;;;;;;;1.20;1.00;;;11.30;98.00;;;;;;5092518;28;21030;-71
2021/05/17 03:18:01;;;;;;;1.20;0.97;;;11.30;98.00;;;;;;5087994;28;20487;-72
2021/05/17 03:20:29;;;;;;;1.20;0.90;;;11.30;98.00;;;;;;5091172;28;20784;-72
2021/05/17 03:22:57;;;;;;;1.20;0.90;;;11.40;98.00;;;;;;5089396;28;20459;-71
2021/05/17 03:25:26;;;;;;;1.20;1.00;;;11.30;98.00;;;;;;5092435;28;20537;-71
2021/05/17 03:27:53;;;;;;;1.30;1.00;;;11.30;98.00;;;;;;5089541;28;20452;-71
2021/05/17 03:30:21;;;;;;;1.20;0.90;;;11.30;98.00;;;;;;5092342;28;21060;-72
2021/05/17 03:32:47;;;;;;;1.20;0.90;;;11.30;98.00;;;;;;5089286;28;20511;-73
2021/05/17 03:35:14;;;;;;;1.20;0.90;;;11.30;98.00;;;;;;5092334;28;20467;-73
2021/05/17 03:37:42;;;;;;;1.20;0.90;;;11.30;98.00;;;;;;5089193;28;20977;-73
2021/05/17 03:40:10;;;;;;;1.30;1.00;;;11.30;98.00;;;;;;5092154;28;20511;-74
2021/05/17 03:42:37;;;;;;;1.20;0.90;;;11.20;98.00;;;;;;5089190;28;20452;-73
2021/05/17 03:45:05;;;;;;;1.20;0.90;;;11.30;98.00;;;;;;5091737;28;20456;-74
2021/05/17 03:47:32;;;;;;;1.20;1.00;;;11.30;98.00;;;;;;5088989;28;20454;-74
2021/05/17 03:49:59;;;;;;;1.20;1.00;;;11.30;98.00;;;;;;5092069;28;20459;-74
2021/05/17 03:52:26;;;;;;;1.20;0.90;;;11.30;98.00;;;;;;5088930;28;20521;-74
2021/05/17 03:54:55;;;;;;;1.20;1.00;;;11.30;98.00;;;;;;5092198;28;20857;-74
2021/05/17 03:57:22;;;;;;;1.20;0.97;;;11.30;98.00;;;;;;5088004;28;20484;-73
2021/05/17 03:59:49;;;;;;;1.20;0.90;;;11.30;98.00;;;;;;5091876;28;20928;-73
2021/05/17 04:02:18;;;;;;;1.20;0.90;;;11.30;98.00;;;;;;5087800;28;20464;-74
2021/05/17 04:04:54;;;;;;;1.20;0.90;;;11.40;98.00;;;;;;5092008;28;20452;-74
2021/05/17 04:07:31;;;;;;;1.20;1.00;;;11.40;98.00;;;;;;5089094;28;20455;-74
2021/05/17 04:15:27;;;;;;;1.20;0.90;;;11.40;98.00;;;;;;5090550;28;20513;-74
2021/05/17 04:17:54;;;;;;;1.20;0.90;;;11.40;98.00;;;;;;5088672;28;20491;-74
2021/05/17 04:20:20;;;;;;;1.20;0.90;;;11.40;98.00;;;;;;5091513;28;20456;-74
2021/05/17 04:22:47;;;;;;;1.20;0.90;;;11.50;98.00;;;;;;5088528;28;20459;-73
2021/05/17 04:25:14;;;;;;;1.20;1.00;;;11.50;98.00;;;;;;5091377;28;20506;-74
2021/05/17 04:27:41;;;;;;;1.20;0.90;;;11.50;98.00;;;;;;5070687;28;20459;-74
2021/05/17 04:30:08;;;;;;;1.20;1.00;;;11.40;98.00;;;;;;5091415;28;20466;-74
2021/05/17 04:32:35;;;;;;;1.20;0.93;;;11.40;98.00;;;;;;5088308;28;20523;-74
2021/05/17 04:35:02;;;;;;;1.20;0.90;;;11.50;98.00;;;;;;5091307;28;20508;-74
2021/05/17 04:37:28;;;;;;;1.20;0.90;;;11.50;98.00;;;;;;5088313;28;20541;-74
2021/05/17 04:39:55;;;;;;;1.20;1.00;;;11.50;98.00;;;;;;5091318;28;20517;-74
2021/05/17 04:42:22;;;;;;;1.20;1.00;;;11.60;98.00;;;;;;5088613;28;20466;-74
2021/05/17 04:44:49;;;;;;;1.20;1.00;;;11.60;98.00;;;;;;5090702;28;20454;-73
2021/05/17 04:47:15;;;;;;;1.20;1.00;;;11.60;98.00;;;;;;5088436;28;20461;-73
2021/05/17 04:49:42;;;;;;;1.20;0.90;;;11.60;98.00;;;;;;5091484;28;20464;-73
2021/05/17 04:52:08;;;;;;;1.20;0.90;;;11.60;98.00;;;;;;5088474;28;20455;-73
2021/05/17 04:54:35;;;;;;;1.20;0.90;;;11.60;98.00;;;;;;5091252;28;20453;-73
2021/05/17 04:57:01;;;;;;;1.20;1.00;;;11.60;98.00;;;;;;5088495;28;20481;-74
2021/05/17 04:59:37;;;;;;;1.20;1.00;;;11.70;98.00;;;;;;5095157;28;20465;-73
2021/05/17 05:02:05;;;;;;;1.20;0.90;;;11.70;98.00;;;;;;5092415;28;20500;-73
2021/05/17 05:04:31;;;;;;;1.30;1.00;;;11.70;98.00;;;;;;5094047;28;20527;-73
2021/05/17 05:06:58;;;;;;;1.20;0.90;;;11.70;98.00;;;;;;5092468;28;20943;-73
2021/05/17 05:09:25;;;;;;;1.20;1.00;;;11.70;98.00;;;;;;5094977;28;20463;-73
2021/05/17 05:11:51;;;;;;;1.20;1.00;;;11.80;98.00;;;;;;5092102;28;20469;-73
2021/05/17 05:14:18;;;;;;;1.20;1.00;;;11.70;98.00;;;;;;5094004;28;20527;-73
2021/05/17 05:16:45;;;;;;;1.20;1.00;;;11.70;98.00;;;;;;5091407;28;20489;-74
2021/05/17 05:19:12;;;;;;;1.20;0.90;;;11.70;98.00;;;;;;5094909;28;20865;-74
2021/05/17 05:21:38;;;;;;;1.20;1.00;;;11.70;98.00;;;;;;5092076;28;20455;-74
2021/05/17 05:24:06;;;;;;;1.20;0.90;;;11.70;98.00;;;;;;5094855;28;20516;-73
2021/05/17 05:26:49;;;;;;;1.57;1.20;;;11.70;98.00;;;;;;5092749;28;20459;-74
2021/05/17 05:29:24;;;;;;;1.20;1.00;;;11.70;98.00;;;;;;5094971;28;20455;-74
2021/05/17 05:31:55;;;;;;;1.20;0.90;;;11.70;98.00;;;;;;5090721;28;20474;-73
2021/05/17 05:34:23;;;;;;;1.20;1.00;;;11.80;98.00;;;;;;5094735;28;20462;-73
2021/05/17 05:36:50;;;;;;;1.20;1.00;;;11.80;98.00;;;;;;5092088;28;20547;-74
2021/05/17 05:39:17;;;;;;;1.20;1.00;;;11.70;98.00;;;;;;5094433;28;20453;-74
2021/05/17 05:41:44;;;;;;;1.20;0.90;;;11.70;98.00;;;;;;5090577;28;20458;-74
2021/05/17 05:44:10;;;;;;;1.40;1.10;;;11.70;98.00;;;;;;5093479;28;20509;-74
2021/05/17 05:46:37;;;;;;;1.20;1.00;;;11.60;98.00;;;;;;5091889;28;20514;-74
2021/05/17 05:49:05;;;;;;;1.20;0.90;;;11.60;98.00;;;;;;5094362;28;20453;-74
2021/05/17 05:51:32;;;;;;;1.20;0.90;;;11.70;98.00;;;;;;5094157;28;20462;-74
2021/05/17 05:53:59;;;;;;;1.20;1.00;;;11.80;98.00;;;;;;5092057;28;20454;-73
2021/05/17 05:56:27;;;;;;;1.20;1.00;;;11.90;98.00;;;;;;5094103;28;20547;-73
2021/05/17 05:58:54;;;;;;;1.20;0.90;;;12.10;98.00;;;;;;5091313;28;20471;-73
2021/05/17 06:01:20;;;;;;;1.20;0.93;;;12.10;98.00;;;;;;5094144;28;20937;-73
2021/05/17 06:03:47;;;;;;;1.20;0.90;;;12.10;98.00;;;;;;5091345;28;20499;-73
2021/05/17 06:06:14;;;;;;;1.20;0.90;;;12.10;98.00;;;;;;5093867;28;20459;-74
2021/05/17 06:08:43;;;;;;;1.20;0.90;;;12.10;98.00;;;;;;5090938;28;20448;-74
2021/05/17 06:11:11;;;;;;;1.20;1.00;;;12.10;98.00;;;;;;5093885;28;20466;-73
2021/05/17 06:13:39;;;;;;;1.20;1.00;;;12.10;98.00;;;;;;5091056;28;20521;-73
2021/05/17 06:16:07;;;;;;;1.20;0.90;;;12.10;98.00;;;;;;5093612;28;20462;-75
2021/05/17 06:18:34;;;;;;;1.20;1.00;;;12.20;98.00;;;;;;5091179;28;20451;-74
2021/05/17 06:21:01;;;;;;;1.20;0.90;;;12.30;98.00;;;;;;5093529;28;20458;-74
2021/05/17 06:23:29;;;;;;;1.20;0.90;;;12.30;98.00;;;;;;5091055;28;20792;-73
2021/05/17 06:25:57;;;;;;;1.20;1.00;;;12.30;98.00;;;;;;5093780;28;20455;-74
2021/05/17 06:28:24;;;;;;;1.20;0.90;;;12.20;98.00;;;;;;5091038;28;20904;-73
2021/05/17 06:30:52;;;;;;;1.20;0.90;;;12.10;98.00;;;;;;5092220;28;20447;-73
2021/05/17 06:33:21;;;;;;;1.20;1.00;;;12.20;98.00;;;;;;5091148;28;20450;-74
2021/05/17 06:35:52;;;;;;;1.20;0.90;;;12.30;98.00;;;;;;5092156;28;20458;-74
2021/05/17 06:38:19;;;;;;;1.20;1.00;;;12.30;98.00;;;;;;5090969;28;20978;-74
2021/05/17 06:40:46;;;;;;;1.20;1.00;;;12.30;98.00;;;;;;5093445;28;20467;-75
2021/05/17 06:43:13;;;;;;;1.20;0.90;;;12.30;98.00;;;;;;5090910;28;20464;-74
2021/05/17 06:45:40;;;;;;;1.20;1.00;;;12.30;98.00;;;;;;5093424;28;20787;-74
2021/05/17 06:48:08;;;;;;;1.20;0.90;;;12.20;98.00;;;;;;5090663;28;20461;-72
2021/05/17 06:50:35;;;;;;;1.20;1.00;;;12.10;98.00;;;;;;5091260;28;20464;-73
2021/05/17 06:53:02;;;;;;;2.80;1.10;;;12.10;98.00;;;;;;5089767;28;20486;-73
2021/05/17 06:55:34;;;;;;;1.20;0.93;;;12.10;98.00;;;;;;5091430;28;20850;-73
2021/05/17 06:58:13;;;;;;;1.20;1.00;;;12.10;98.00;;;;;;5088340;28;20481;-74
2021/05/17 07:00:40;;;;;;;1.20;0.90;;;12.20;98.00;;;;;;5091933;28;20534;-74
2021/05/17 07:03:09;;;;;;;1.20;0.90;;;12.50;98.00;;;;;;5089999;28;20457;-74
2021/05/17 07:05:38;;;;;;;1.20;0.90;;;12.50;98.00;;;;;;5091672;28;20461;-75
2021/05/17 07:13:36;;;;;;;1.20;0.93;;;12.20;98.00;;;;;;5089818;28;20481;-74
2021/05/17 07:16:02;;;;;;;1.20;0.90;;;12.30;98.00;;;;;;5091511;28;20985;-75
2021/05/17 07:18:29;;;;;;;1.20;1.00;;;12.50;98.00;;;;;;5088062;28;20452;-74
2021/05/17 07:23:42;;;;;;;1.20;0.93;;;12.40;98.00;;;;;;5089548;28;20466;-74
2021/05/17 07:26:12;;;;;;;1.20;0.97;;;12.50;98.00;;;;;;5091837;28;20981;-74
2021/05/17 07:28:50;;;;;;;1.20;0.93;;;12.50;98.00;;;;;;5089726;28;20460;-74
2021/05/17 07:31:16;;;;;;;1.20;1.00;;;12.60;98.00;;;;;;5091963;28;20451;-75
2021/05/17 07:33:43;;;;;;;1.20;0.90;;;12.70;98.00;;;;;;5089564;28;20454;-75
2021/05/17 07:36:11;;;;;;;1.20;1.00;;;12.90;98.00;;;;;;5090367;28;20458;-74
2021/05/17 07:38:38;;;;;;;1.20;0.90;;;13.00;98.00;;;;;;5089306;28;20520;-74
2021/05/17 07:41:04;;;;;;;1.20;0.90;;;13.00;98.00;;;;;;5091086;28;20814;-75
2021/05/17 07:43:31;;;;;;;1.20;0.90;;;13.00;98.00;;;;;;5089251;28;20508;-75
2021/05/17 07:45:58;;;;;;;1.20;1.00;;;13.00;98.00;;;;;;5091544;28;20458;-74
2021/05/17 07:48:25;;;;;;;1.20;1.00;;;13.10;98.00;;;;;;5089337;28;20813;-74
2021/05/17 07:50:52;;;;;;;1.20;0.90;;;13.10;98.00;;;;;;5091059;28;20457;-74
2021/05/17 07:53:19;;;;;;;1.20;0.90;;;13.10;98.00;;;;;;5089512;28;20487;-74
2021/05/17 07:55:50;;;;;;;1.20;0.93;;;13.20;98.00;;;;;;5091142;28;20461;-74
2021/05/17 07:58:17;;;;;;;1.20;0.90;;;13.10;98.00;;;;;;5088072;28;20924;-74
2021/05/17 08:00:44;;;;;;;1.20;1.00;;;13.20;98.00;;;;;;5091246;28;20474;-74
2021/05/17 08:03:11;;;;;;;1.20;1.00;;;13.20;98.00;;;;;;5088960;28;20450;-73
2021/05/17 08:05:38;;;;;;;1.20;1.00;;;13.30;98.00;;;;;;5088418;28;20461;-74
2021/05/17 08:08:06;;;;;;;1.20;0.90;;;13.40;98.00;;;;;;5088190;28;20460;-74
2021/05/17 08:10:34;;;;;;;1.20;1.00;;;13.50;97.90;;;;;;5089477;28;20830;-75
2021/05/17 08:13:00;;;;;;;1.20;1.00;;;13.70;97.60;;;;;;5088453;28;20460;-75
2021/05/17 08:15:27;;;;;;;1.20;1.00;;;13.80;97.00;;;;;;5089339;28;20555;-74
2021/05/17 08:17:54;;;;;;;1.20;1.00;;;14.00;98.00;;;;;;5088636;28;20476;-74
2021/05/17 08:20:22;;;;;;;1.20;0.90;;;14.00;97.50;;;;;;5091009;28;20452;-74
2021/05/17 08:22:49;;;;;;;1.20;0.90;;;14.00;96.50;;;;;;5088831;28;20492;-74
2021/05/17 08:25:16;;;;;;;1.20;1.00;;;13.90;95.70;;;;;;5089688;28;21060;-74
2021/05/17 08:27:42;;;;;;;1.43;1.03;;;13.90;96.90;;;;;;5089104;28;20453;-74
2021/05/17 08:30:10;;;;;;;1.20;0.97;;;13.80;96.20;;;;;;5091050;28;20941;-74
2021/05/17 08:32:37;;;;;;;1.20;0.90;;;13.70;96.00;;;;;;5091900;28;20462;-74
2021/05/17 08:35:04;;;;;;;1.20;1.00;;;13.70;94.50;;;;;;5095302;28;20506;-74
2021/05/17 08:37:31;;;;;;;1.20;0.90;;;13.80;96.20;;;;;;5093015;28;20481;-74
2021/05/17 08:39:57;;;;;;;1.20;1.00;;;13.90;96.00;;;;;;5095292;28;20456;-74
2021/05/17 08:42:27;;;;;;;1.20;0.90;;;14.10;97.60;;;;;;5093564;28;20457;-74
2021/05/17 08:44:54;;;;;;;1.20;1.00;;;14.30;95.80;;;;;;5095118;28;20541;-74
2021/05/17 08:47:21;;;;;;;1.20;1.00;;;14.50;95.90;;;;;;5092952;28;20480;-74
2021/05/17 08:49:47;;;;;;;1.20;0.93;;;14.60;94.90;;;;;;5095004;28;20458;-74
2021/05/17 08:52:13;;;;;;;1.20;1.00;;;14.70;94.70;;;;;;5092830;28;20828;-74
2021/05/17 08:54:41;;;;;;;1.20;1.00;;;14.70;94.90;;;;;;5094718;28;20454;-74
2021/05/17 08:57:07;;;;;;;1.20;0.90;;;14.70;93.10;;;;;;5092724;28;20505;-74
2021/05/17 08:59:34;;;;;;;1.20;1.00;;;14.80;92.40;;;;;;5094663;28;20968;-74
2021/05/17 09:02:00;;;;;;;1.20;1.00;;;14.70;93.60;;;;;;5092577;28;20504;-75
2021/05/17 09:04:27;;;;;;;1.20;0.90;;;14.80;93.80;;;;;;5094544;28;20820;-75
2021/05/17 09:06:59;;;;;;;1.20;0.90;;;14.80;94.30;;;;;;5093476;28;20484;-75
2021/05/17 09:09:28;;;;;;;1.20;0.90;;;14.70;93.60;;;;;;5094504;28;20465;-74
2021/05/17 09:11:58;;;;;;;1.20;0.90;;;14.80;92.80;;;;;;5093116;28;20459;-74
2021/05/17 09:14:26;;;;;;;1.20;1.00;;;14.90;93.00;;;;;;5094547;28;20457;-75
2021/05/17 09:16:55;;;;;;;1.20;1.00;;;15.00;92.40;;;;;;5093579;28;20487;-75
2021/05/17 09:19:23;;;;;;;1.20;1.00;;;15.20;93.60;;;;;;5094134;28;20463;-74
2021/05/17 09:22:09;;;;;;;1.20;0.90;;;15.30;92.40;;;;;;5092311;28;20472;-74
2021/05/17 09:24:42;;;;;;;1.30;1.00;;;15.20;88.60;;;;;;5093349;28;20538;-75
2021/05/17 09:27:11;;;;;;;1.20;1.00;;;15.10;91.00;;;;;;5091390;28;20792;-73
2021/05/17 09:29:41;;;;;;;1.20;0.90;;;15.10;89.60;;;;;;5093583;28;20463;-73
2021/05/17 09:32:19;;;;;;;1.20;0.90;;;15.00;90.80;;;;;;5091158;28;20451;-73
2021/05/17 09:34:48;;;;;;;1.20;1.00;;;14.90;90.60;;;;;;5092009;28;20504;-71
2021/05/17 09:37:16;;;;;;;1.20;1.00;;;15.00;91.60;;;;;;5090076;28;20490;-72
2021/05/17 09:39:51;;;;;;;1.20;0.90;;;15.20;91.50;;;;;;5090826;28;20479;-72
2021/05/17 09:42:23;;;;;;;1.20;1.00;;;15.40;91.70;;;;;;5090988;28;20553;-72
2021/05/17 09:44:52;;;;;;;1.20;1.10;;;15.70;90.00;;;;;;5092421;28;20449;-73
2021/05/17 09:47:20;;;;;;;1.20;1.00;;;15.80;89.70;;;;;;5091028;28;20682;-74
2021/05/17 09:49:49;;;;;;;1.40;1.10;;;15.90;88.80;;;;;;5093457;28;20463;-75
2021/05/17 09:52:21;;;;;;;1.20;1.00;;;16.00;89.90;;;;;;5090937;28;20958;-73
2021/05/17 09:54:54;;;;;;;1.20;1.00;;;16.40;87.90;;;;;;5092930;28;20973;-74
2021/05/17 09:57:23;;;;;;;1.20;1.00;;;16.30;86.70;;;;;;5090528;28;20834;-77
2021/05/17 09:59:51;;;;;;;1.20;1.00;;;16.20;89.10;;;;;;5093309;28;20937;-76
2021/05/17 10:02:32;;;;;;;1.20;1.00;;;16.10;89.10;;;;;;5090565;28;20464;-75
2021/05/17 10:05:13;;;;;;;1.20;1.10;;;16.10;89.50;;;;;;5093045;28;20464;-76
2021/05/17 10:07:40;;;;;;;1.20;1.00;;;16.00;89.80;;;;;;5090511;28;20674;-73
2021/05/17 10:10:09;;;;;;;1.20;1.00;;;15.60;89.30;;;;;;5092921;28;20462;-73
2021/05/17 10:12:38;;;;;;;1.20;1.00;;;15.50;90.60;;;;;;5089195;28;21009;-72
2021/05/17 10:15:07;;;;;;;1.20;1.00;;;15.40;91.40;;;;;;5092375;28;20470;-72
2021/05/17 10:17:34;;;;;;;1.20;0.90;;;15.40;90.80;;;;;;5090154;28;20481;-72
2021/05/17 10:20:03;;;;;;;1.20;1.00;;;15.30;91.50;;;;;;5092854;28;20620;-73
2021/05/17 10:22:30;;;;;;;1.20;1.00;;;14.90;96.60;;;;;;5089711;28;20462;-75
2021/05/17 10:24:59;;;;;;;1.20;1.00;;;14.70;98.00;;;;;;5092475;28;20461;-75
2021/05/17 10:27:28;;;;;;;1.20;1.00;;;14.80;98.00;;;;;;5088515;28;20451;-74
2021/05/17 10:30:02;;;;;;;1.20;1.00;;;15.10;98.00;;;;;;5092254;28;20443;-75
2021/05/17 10:32:43;;;;;;;1.20;1.00;;;15.20;98.00;;;;;;5090053;28;20457;-75
2021/05/17 10:35:13;;;;;;;1.20;0.90;;;15.40;98.00;;;;;;5092457;28;20952;-75
2021/05/17 10:37:39;;;;;;;1.20;1.00;;;15.50;97.00;;;;;;5089802;28;20490;-75
2021/05/17 10:40:09;;;;;;;1.20;1.00;;;15.30;95.90;;;;;;5092278;28;20457;-74
2021/05/17 10:42:50;;;;;;;1.20;1.00;;;15.50;98.00;;;;;;5089930;28;20807;-75
2021/05/17 10:48:26;;;;;;;1.20;1.00;;;15.90;95.50;;;;;;5089822;28;20946;-75
2021/05/17 10:51:20;;;;;;;1.20;1.00;;;16.10;97.40;;;;;;5092232;28;20788;-76
2021/05/17 10:53:54;;;;;;;1.20;1.00;;;16.20;94.70;;;;;;5079176;28;20612;-76
2021/05/17 10:56:54;;;;;;;1.20;1.00;;;16.20;93.60;;;;;;5091046;28;20452;-74
2021/05/17 11:02:12;;;;;;;1.20;1.00;;;16.20;91.50;;;;;;5089911;28;20439;-75
2021/05/17 11:04:40;;;;;;;1.20;1.00;;;15.80;93.80;;;;;;5091534;28;20456;-75
2021/05/17 11:07:19;;;;;;;1.20;1.00;;;15.50;97.50;;;;;;5090652;28;20461;-74
2021/05/17 11:10:18;;;;;;;1.20;1.00;;;15.10;98.00;;;;;;5090751;28;20462;-74
2021/05/17 11:13:17;;;;;;;1.63;1.00;;;14.80;98.00;;;;;;5089459;28;20465;-73
2021/05/17 11:15:56;;;;;;;1.20;0.97;;;14.70;98.00;;;;;;5091439;28;20466;-74
2021/05/17 11:18:40;;;;;;;1.20;1.00;;;14.60;98.00;;;;;;5089540;28;20486;-74
2021/05/17 11:21:27;;;;;;;1.20;0.90;;;14.50;98.00;;;;;;5090546;28;20554;-74
2021/05/17 11:23:57;;;;;;;1.20;1.00;;;14.90;98.00;;;;;;5087315;28;20489;-75
2021/05/17 11:26:34;;;;;;;1.20;1.10;;;15.60;98.00;;;;;;5091282;28;20503;-75
2021/05/17 11:29:09;;;;;;;1.20;1.00;;;16.20;98.00;;;;;;5088642;28;20792;-74
2021/05/17 11:31:44;;;;;;;1.20;1.03;;;16.70;98.00;;;;;;5091174;28;20459;-73
2021/05/17 11:34:17;;;;;;;1.20;0.90;;;16.80;93.50;;;;;;5088837;28;21014;-75
2021/05/17 11:36:47;;;;;;;1.20;1.00;;;16.60;93.60;;;;;;5091058;28;20459;-75
2021/05/17 11:39:25;;;;;;;1.20;1.00;;;16.90;92.70;;;;;;5087457;28;20452;-75
2021/05/17 11:42:04;;;;;;;1.20;1.03;;;17.40;93.60;;;;;;5090923;28;20452;-76
2021/05/17 11:44:33;;;;;;;1.20;0.93;;;17.80;88.70;;;;;;5088392;28;20459;-75
2021/05/17 11:47:02;;;;;;;1.20;1.00;;;18.10;92.90;;;;;;5091557;28;20452;-75
2021/05/17 11:49:32;;;;;;;1.20;1.00;;;18.10;85.10;;;;;;5089501;28;20482;-74
2021/05/17 11:52:01;;;;;;;1.20;1.00;;;17.80;83.90;;;;;;5091634;28;20939;-74
2021/05/17 11:54:34;;;;;;;1.20;0.93;;;17.30;85.40;;;;;;5089333;28;20460;-75
2021/05/17 11:57:01;;;;;;;1.20;1.00;;;16.70;88.50;;;;;;5091701;28;20479;-74
2021/05/17 11:59:29;;;;;;;1.20;1.00;;;16.20;87.10;;;;;;5089379;28;20491;-73
2021/05/17 12:01:58;;;;;;;1.20;1.00;;;15.80;90.20;;;;;;5091696;28;20451;-74
2021/05/17 12:04:28;;;;;;;1.20;1.00;;;15.50;90.90;;;;;;5089286;28;20665;-74
2021/05/17 12:06:57;;;;;;;1.20;1.00;;;15.30;92.10;;;;;;5091638;28;20460;-74
2021/05/17 12:09:40;;;;;;;4.00;1.30;;;15.10;95.00;;;;;;5089136;28;20984;-74
2021/05/17 12:12:09;;;;;;;1.20;1.00;;;14.40;98.00;;;;;;5091236;28;20455;-74
2021/05/17 12:14:37;;;;;;;1.20;0.90;;;13.90;98.00;;;;;;5077471;28;20573;-75
2021/05/17 12:17:22;;;;;;;1.20;1.00;;;13.60;98.00;;;;;;5071171;28;20482;-74
2021/05/17 12:19:51;;;;;;;1.20;0.90;;;13.30;98.00;;;;;;5070181;28;20460;-72
2021/05/17 12:22:22;;;;;;;1.20;0.90;;;13.20;98.00;;;;;;5068223;28;20520;-74
2021/05/17 12:24:49;;;;;;;1.20;1.00;;;13.60;98.00;;;;;;5070607;28;20825;-72
2021/05/17 12:27:18;;;;;;;1.20;1.10;;;14.40;98.00;;;;;;5068111;28;20820;-74
2021/05/17 12:29:53;;;;;;;1.20;1.00;;;14.80;98.00;;;;;;5070836;28;20996;-74
2021/05/17 12:32:22;;;;;;;1.20;1.00;;;15.40;98.00;;;;;;5068378;28;20687;-71
2021/05/17 12:34:54;;;;;;;1.60;1.03;;;16.00;98.00;;;;;;5070214;28;20769;-71
2021/05/17 12:37:23;;;;;;;1.20;1.00;;;16.40;98.00;;;;;;5068215;28;20894;-74
2021/05/17 12:40:21;;;;;;;1.20;1.03;;;16.70;98.00;;;;;;5070279;28;20532;-72
2021/05/17 12:42:59;;;;;;;1.20;1.10;;;17.10;98.00;;;;;;5068117;28;20543;-75
2021/05/17 12:45:29;;;;;;;2.13;1.50;;;17.70;98.00;;;;;;5069916;28;20547;-73
2021/05/17 12:48:01;;;;;;;1.20;1.00;;;17.40;98.00;;;;;;5067945;28;20822;-75
2021/05/17 12:50:30;;;;;;;1.20;1.00;;;17.20;98.00;;;;;;5070101;28;20463;-73
2021/05/17 12:53:09;;;;;;;1.20;1.00;;;16.90;98.00;;;;;;5067866;28;20456;-73
2021/05/17 12:55:42;;;;;;;1.20;1.00;;;16.50;98.00;;;;;;5069823;28;20476;-72
2021/05/17 12:58:10;;;;;;;1.20;1.03;;;16.50;98.00;;;;;;5066042;28;20481;-72
2021/05/17 13:00:45;;;;;;;1.20;1.00;;;16.90;98.00;;;;;;5070281;28;20812;-74
2021/05/17 13:03:15;;;;;;;1.20;1.00;;;17.40;98.00;;;;;;5068172;28;20456;-75
2021/05/17 13:05:56;;;;;;;1.20;1.00;;;17.60;98.00;;;;;;5070267;28;20457;-75
2021/05/17 13:08:29;;;;;;;1.20;0.90;;;17.30;93.00;;;;;;5067764;28;20972;-74
2021/05/17 13:11:00;;;;;;;1.20;1.10;;;16.90;93.30;;;;;;5070341;28;20491;-74
2021/05/17 13:13:49;;;;;;;1.20;0.97;;;16.70;96.70;;;;;;5067927;28;20821;-75
2021/05/17 13:16:19;;;;;;;1.20;1.00;;;16.50;98.00;;;;;;5070208;28;20701;-75
2021/05/17 13:19:00;;;;;;;1.20;1.00;;;16.50;96.10;;;;;;5067620;28;20749;-75
2021/05/17 13:21:35;;;;;;;1.20;1.00;;;16.20;96.10;;;;;;5073757;28;20558;-74